Latest Weather Observations for Gingin Airport

IDW60801

Issued at 9:02 am WST Tuesday 28 July 2015 (issued every 30 minutes, with the page automatically refreshed every 10 minutes)

About weather observations | Map of weather stations | Latest weather observations for WA | Other Formats
Station Details ID: 009178 Name: GINGIN AERO Lat: -31.46 Lon: 115.86 Height: 73.0 m
Data from the previous 72 hours. | See also: Recent months at Gingin Airport
Date/Time
WST
Temp
°C
App
Temp
°C
Dew
Point
Rel
Hum
%
Delta-T
°C
Wind Press
QNH
hPa
Press
MSL
hPa
Rain
since 9 am
mm
Dir
 
Spd
km/h
Gust
km/h
Spd
kts
Gust
kts
28/09:00am 10.8 4.8 10.8 100 0.0 N 33 52 18 28 1020.2 1020.2 9.6
28/08:30am 10.2 4.0 10.2 100 0.0 NNE 33 46 18 25 1019.6 1019.6 7.4
28/08:00am 10.4 5.6 10.4 100 0.0 N 26 35 14 19 1020.3 1020.3 6.2
28/07:30am 10.6 7.6 10.6 100 0.0 NNE 17 22 9 12 1020.3 1020.3 4.0
28/07:00am 11.0 7.3 10.1 94 0.5 NNE 20 26 11 14 1020.5 1020.5 1.8
28/06:30am 12.2 11.2 8.9 80 1.7 NNE 4 7 2 4 1020.8 1020.8 0.6
28/06:00am 13.2 10.8 7.0 66 3.0 NNE 9 15 5 8 1020.0 1020.0 0.0
28/05:30am 13.0 9.9 7.2 68 2.8 NNE 13 19 7 10 1019.7 1019.7 0.0
28/05:00am 12.9 9.5 7.8 71 2.5 NNE 15 19 8 10 1020.2 1020.2 0.0
28/04:30am 13.0 10.0 7.5 69 2.7 NNE 13 17 7 9 1020.8 1020.8 0.0
28/04:00am 12.9 10.6 7.6 70 2.6 N 9 13 5 7 1021.3 1021.3 0.0
28/03:30am 13.2 11.2 7.2 67 2.9 NNW 7 11 4 6 1022.3 1022.3 0.0
28/03:00am 13.6 10.5 7.4 66 3.0 NNE 13 17 7 9 1022.2 1022.2 0.0
28/02:30am 14.9 12.2 5.4 53 4.5 NNE 9 15 5 8 1022.6 1022.6 0.0
28/02:00am 15.6 11.9 4.6 48 5.1 NE 13 19 7 10 1022.6 1022.6 0.0
28/01:30am 15.4 12.1 4.8 49 5.0 NE 11 19 6 10 1021.9 1021.9 0.0
28/01:00am 15.7 11.2 4.4 47 5.3 NE 17 20 9 11 1022.1 1022.1 0.0
28/12:30am 15.8 11.0 4.5 47 5.3 NE 19 24 10 13 1022.4 1022.4 0.0
28/12:00am 15.7 11.3 4.7 48 5.2 NE 17 24 9 13 1022.9 1022.9 0.0
 
Date/Time
WST
Temp
°C
App
Temp
°C
Dew
Point
Rel
Hum
%
Delta-T
°C
Wind Press
QNH
hPa
Press
MSL
hPa
Rain
since 9 am
mm
Dir
 
Spd
km/h
Gust
km/h
Spd
kts
Gust
kts
27/11:30pm 15.7 10.9 4.7 48 5.2 NE 19 30 10 16 1023.0 1023.0 0.0
27/11:00pm 15.4 10.7 5.0 50 4.9 NE 19 24 10 13 1023.3 1023.3 0.0
27/10:30pm 13.1 10.1 6.2 63 3.3 NE 11 15 6 8 1024.1 1024.1 0.0
27/10:00pm 12.2 11.1 6.7 69 2.6 NE 2 7 1 4 1024.1 1024.1 0.0
27/09:30pm 12.0 10.1 6.5 69 2.6 NE 6 7 3 4 1024.1 1024.1 0.0
27/09:00pm 11.5 8.6 6.6 72 2.3 NE 11 13 6 7 1023.7 1023.7 0.0
27/08:30pm 12.6 10.0 6.0 64 3.1 NE 9 11 5 6 1023.8 1023.8 0.0
27/08:00pm 11.6 9.5 6.5 71 2.4 NE 7 9 4 5 1024.2 1024.2 0.0
27/07:30pm 11.4 8.2 6.7 73 2.2 NE 13 15 7 8 1024.6 1024.6 0.0
27/07:00pm 12.1 10.3 7.0 71 2.4 NE 6 7 3 4 1024.9 1024.9 0.0
27/06:30pm 13.0 10.8 6.4 64 3.2 NE 7 9 4 5 1024.8 1024.8 0.0
27/06:00pm 14.1 12.0 6.5 60 3.7 NE 7 9 4 5 1024.9 1024.9 0.0
27/05:30pm 16.1 13.8 5.7 50 5.0 NE 7 11 4 6 1024.5 1024.5 0.0
27/05:00pm 17.8 14.3 5.4 44 6.0 NE 13 17 7 9 1024.4 1024.4 0.0
27/04:30pm 19.1 15.3 5.9 42 6.5 NE 15 19 8 10 1024.2 1024.2 0.0
27/04:00pm 19.6 16.1 5.6 40 6.9 NE 13 19 7 10 1024.5 1024.5 0.0
27/03:30pm 20.1 15.4 5.0 37 7.4 NE 19 22 10 12 1024.2 1024.2 0.0
27/03:00pm 20.4 15.6 4.4 35 7.7 NE 19 30 10 16 1024.5 1024.5 0.0
27/02:30pm 20.3 15.6 5.9 39 7.2 NNE 20 32 11 17 1024.4 1024.4 0.0
27/02:00pm 19.8 14.6 5.5 39 7.0 NNE 22 32 12 17 1025.1 1025.2 0.0
27/01:30pm 19.9 14.6 6.6 42 6.7 NNE 24 35 13 19 1025.6 1025.7 0.0
27/01:00pm 19.4 14.4 6.5 43 6.4 NNE 22 30 12 16 1026.2 1026.3 0.0
27/12:30pm 18.6 13.6 6.4 45 6.1 NNE 22 30 12 16 1027.2 1027.3 0.0
27/12:00pm 17.1 11.9 5.7 47 5.5 NNE 22 33 12 18 1027.9 1028.0 0.0
27/11:30am 17.6 13.1 6.2 47 5.6 NNE 19 26 10 14 1028.7 1028.8 0.0
27/11:00am 16.7 12.2 6.8 52 4.9 NNE 20 30 11 16 1028.9 1029.0 0.0
27/10:30am 15.5 11.0 7.0 57 4.2 NE 20 26 11 14 1029.1 1029.2 0.0
27/10:00am 13.5 9.1 7.5 67 2.9 NE 20 28 11 15 1029.5 1029.6 0.0
27/09:30am 12.6 8.7 7.1 69 2.7 NE 17 24 9 13 1029.3 1029.4 0.0
27/09:00am 12.0 7.8 7.3 73 2.3 NE 19 26 10 14 1029.4 1029.5 0.0
27/08:30am 11.2 7.4 7.7 79 1.7 NE 17 20 9 11 1029.6 1029.7 0.0
27/08:00am 10.0 6.9 7.4 84 1.2 ENE 13 17 7 9 1029.8 1029.9 0.0
27/07:30am 9.3 6.2 7.4 88 0.9 ENE 13 17 7 9 1029.4 1029.5 0.0
27/07:00am 9.4 6.4 7.8 90 0.8 ENE 13 19 7 10 1029.2 1029.3 0.0
27/06:30am 7.7 5.4 7.4 98 0.1 ENE 9 13 5 7 1029.2 1029.3 0.0
27/06:00am 7.7 4.7 7.7 100 0.0 ENE 13 15 7 8 1028.9 1029.0 0.0
27/05:30am 6.9 3.7 6.9 100 0.0 ENE 13 15 7 8 1028.8 1028.9 0.0
27/05:00am 7.0 4.1 6.7 98 0.1 ENE 11 13 6 7 1028.9 1029.0 0.0
27/04:30am 7.9 4.4 7.1 95 0.4 ENE 15 15 8 8 1028.8 1028.9 0.0
27/04:00am 8.3 5.8 6.6 89 0.8 ENE 9 11 5 6 1029.4 1029.5 0.0
27/03:30am 9.3 6.2 7.3 87 0.9 ENE 13 17 7 9 1029.3 1029.4 0.0
27/03:00am 8.7 5.5 7.0 89 0.8 ENE 13 15 7 8 1029.1 1029.2 0.0
27/02:30am 9.5 5.7 7.6 88 0.9 ENE 17 22 9 12 1029.2 1029.3 0.0
27/02:00am 9.1 6.0 8.8 98 0.1 ENE 15 20 8 11 1029.6 1029.7 0.0
27/01:30am 7.4 4.3 7.4 100 0.0 E 13 15 7 8 1029.8 1029.9 0.0
27/01:00am 7.4 5.1 7.4 100 0.0 E 9 11 5 6 1030.2 1030.3 0.0
27/12:30am 7.7 5.1 7.7 100 0.0 E 11 13 6 7 1030.6 1030.7 0.0
27/12:00am 7.8 5.2 7.8 100 0.0 E 11 13 6 7 1030.8 1030.9 0.0
 
Date/Time
WST
Temp
°C
App
Temp
°C
Dew
Point
Rel
Hum
%
Delta-T
°C
Wind Press
QNH
hPa
Press
MSL
hPa
Rain
since 9 am
mm
Dir
 
Spd
km/h
Gust
km/h
Spd
kts
Gust
kts
26/11:30pm 8.9 5.7 8.5 97 0.2 E 15 17 8 9 1030.7 1030.8 0.0
26/11:00pm 9.0 6.2 8.5 97 0.2 ESE 13 17 7 9 1030.9 1031.0 0.0
26/10:30pm 8.8 6.1 8.8 100 0.0 ESE 13 15 7 8 1031.0 1031.1 0.0
26/10:00pm 8.7 5.9 8.7 100 0.0 ESE 13 15 7 8 1031.2 1031.2 0.0
26/09:30pm 8.5 6.1 8.5 100 0.0 SE 11 13 6 7 1031.3 1031.3 0.0
26/09:00pm 7.7 5.3 7.1 96 0.3 ESE 9 9 5 5 1031.2 1031.2 0.0
26/08:30pm 9.3 6.9 8.5 95 0.4 SE 11 13 6 7 1031.0 1031.1 0.0
26/08:00pm 9.8 7.3 8.2 90 0.8 SE 11 13 6 7 1031.0 1031.1 0.0
26/07:30pm 10.4 7.9 8.3 87 1.0 SE 11 13 6 7 1030.6 1030.7 0.0
26/07:00pm 10.9 8.0 8.1 83 1.4 SE 13 13 7 7 1030.5 1030.6 0.0
26/06:30pm 11.9 9.4 8.2 78 1.8 SE 11 15 6 8 1030.1 1030.2 0.0
26/06:00pm 13.0 10.5 8.3 73 2.3 SE 11 13 6 7 1029.6 1029.7 0.0
26/05:30pm 14.7 11.8 8.2 65 3.3 ESE 13 19 7 10 1029.1 1029.2 0.0
26/05:00pm 16.0 12.7 8.2 60 3.9 SE 15 19 8 10 1029.0 1029.1 0.0
26/04:30pm 16.6 12.9 8.1 57 4.3 ESE 17 20 9 11 1028.8 1028.9 0.0
26/04:00pm 16.6 13.4 8.3 58 4.2 E 15 20 8 11 1028.9 1029.0 0.0
26/03:30pm 17.2 14.2 7.8 54 4.8 E 13 20 7 11 1029.1 1029.2 0.0
26/03:00pm 17.7 14.1 8.3 54 4.8 ENE 17 24 9 13 1029.6 1029.7 0.0
26/02:30pm 16.8 13.4 7.7 55 4.6 ENE 15 20 8 11 1029.7 1029.8 0.0
26/02:00pm 17.3 13.5 7.6 53 4.9 ESE 17 22 9 12 1029.5 1029.6 0.0
26/01:30pm 17.4 13.7 8.0 54 4.8 ENE 17 22 9 12 1029.8 1029.9 0.0
26/01:00pm 17.4 13.5 8.5 56 4.5 ENE 19 30 10 16 1030.3 1030.4 0.0
26/12:30pm 16.7 12.9 8.9 60 4.0 ENE 19 37 10 20 1030.8 1030.9 0.0
26/12:00pm 16.7 13.4 9.6 63 3.7 ENE 17 24 9 13 1031.4 1031.4 0.0
26/11:30am 16.5 13.5 10.8 69 3.1 ENE 17 20 9 11 1032.0 1032.0 0.0
26/11:00am 15.4 11.8 10.4 72 2.6 ENE 20 30 11 16 1032.3 1032.3 0.0
26/10:30am 14.8 11.6 11.4 80 1.8 NE 19 24 10 13 1032.7 1032.7 0.0
26/10:00am 14.1 10.5 11.8 86 1.2 ENE 22 28 12 15 1032.7 1032.7 0.0
26/09:30am 13.1 10.5 13.1 100 0.0 ENE 19 24 10 13 1032.7 1032.7 0.0
26/09:00am 11.2 9.9 11.2 100 0.0 E 9 11 5 6 1032.7 1032.7 0.0
26/08:30am 9.6 9.1 9.3 98 0.1 E 2 7 1 4 1032.4 1032.4 0.0
26/08:00am 6.1 5.2 6.1 100 0.0 CALM 0 0 0 0 1032.2 1032.2 0.0
26/07:30am 2.8 -0.8 2.8 100 0.0 E 11 13 6 7 1032.0 1032.0 0.0
26/07:00am 1.1 -2.4 1.1 100 0.0 ESE 9 11 5 6 1031.5 1031.5 0.0
26/06:30am 1.1 -2.0 1.1 100 0.0 ESE 7 9 4 5 1031.4 1031.4 0.0
26/06:00am 1.2 -1.9 1.2 100 0.0 ESE 7 11 4 6 1031.0 1031.1 0.0
26/05:30am 1.3 -0.5 1.3 100 0.0 CALM 0 0 0 0 1030.6 1030.7 0.0
26/05:00am 2.1 -0.9 2.1 100 0.0 ESE 7 9 4 5 1030.2 1030.3 0.0
26/04:30am 2.4 -0.5 2.4 100 0.0 ESE 7 11 4 6 1030.0 1030.1 0.0
26/04:00am 2.4 0.8 2.4 100 0.0 CALM 0 0 0 0 1029.9 1030.0 0.0
26/03:30am 2.2 0.6 2.2 100 0.0 CALM 0 0 0 0 1029.9 1030.0 0.0
26/03:00am 2.2 -0.6 2.2 100 0.0 E 6 7 3 4 1029.8 1029.9 0.0
26/02:30am 2.4 0.4 2.4 100 0.0 SE 2 6 1 3 1029.7 1029.8 0.0
26/02:00am 2.9 1.4 2.9 100 0.0 CALM 0 0 0 0 1029.8 1029.9 0.0
26/01:30am 3.3 0.7 3.3 100 0.0 SW 6 7 3 4 1029.8 1029.9 0.0
26/01:00am 3.2 1.4 3.2 100 0.0 SW 2 6 1 3 1029.8 1029.9 0.0
26/12:30am 3.3 0.7 3.3 100 0.0 SW 6 7 3 4 1029.8 1029.9 0.0
26/12:00am 3.0 1.5 3.0 100 0.0 CALM 0 0 0 0 1030.0 1030.1 0.0
 
Date/Time
WST
Temp
°C
App
Temp
°C
Dew
Point
Rel
Hum
%
Delta-T
°C
Wind Press
QNH
hPa
Press
MSL
hPa
Rain
since 9 am
mm
Dir
 
Spd
km/h
Gust
km/h
Spd
kts
Gust
kts
25/11:30pm 3.3 1.9 3.3 100 0.0 CALM 0 0 0 0 1030.1 1030.2 0.0
25/11:00pm 4.0 2.7 4.0 100 0.0 CALM 0 0 0 0 1030.1 1030.2 0.0
25/10:30pm 4.1 2.8 4.1 100 0.0 CALM 0 0 0 0 1030.1 1030.2 0.0
25/10:00pm 4.8 3.6 4.8 100 0.0 CALM 0 0 0 0 1030.0 1030.1 0.0
25/09:30pm 5.6 4.2 5.6 100 0.0 SW 2 6 1 3 1030.0 1030.1 0.0
25/09:00pm 6.8 6.1 6.8 100 0.0 CALM 0 0 0 0 1029.9 1030.0 0.0
25/08:30pm 6.7 5.9 6.7 100 0.0 CALM 0 0 0 0 1029.6 1029.7 0.0
25/08:00pm 7.0 6.3 7.0 100 0.0 CALM 0 0 0 0 1029.4 1029.5 0.0
25/07:30pm 7.9 7.4 7.9 100 0.0 CALM 0 0 0 0 1029.2 1029.3 0.0
25/07:00pm 9.0 7.4 7.8 92 0.6 SW 6 6 3 3 1028.9 1029.0 0.0
25/06:30pm 11.0 9.4 8.8 86 1.1 SW 7 7 4 4 1028.4 1028.5 0.0
25/06:00pm 13.1 11.3 9.4 78 1.9 SSE 9 9 5 5 1028.1 1028.2 0.0
25/05:30pm 14.5 12.2 9.1 70 2.8 SSE 11 15 6 8 1028.0 1028.1 0.0
25/05:00pm 15.4 12.8 9.3 67 3.1 SW 13 19 7 10 1027.9 1028.0 0.0
25/04:30pm 15.7 13.4 9.1 65 3.4 SSW 11 15 6 8 1027.7 1027.8 0.0
25/04:00pm 16.2 13.5 8.9 62 3.7 SSW 13 17 7 9 1027.5 1027.6 0.0
25/03:30pm 16.1 13.1 9.3 64 3.5 SSW 15 19 8 10 1027.3 1027.4 0.0
25/03:00pm 16.0 13.2 9.9 67 3.2 S 15 19 8 10 1027.1 1027.2 0.0
25/02:30pm 16.1 12.9 9.8 66 3.3 SSE 17 22 9 12 1026.9 1027.0 0.0
25/02:00pm 16.5 13.2 9.4 63 3.7 SSE 17 20 9 11 1026.8 1026.9 0.0
25/01:30pm 16.8 14.8 10.0 64 3.6 S 11 15 6 8 1027.0 1027.1 0.0
25/01:00pm 16.7 14.5 9.4 62 3.8 SSW 11 17 6 9 1027.3 1027.4 0.0
25/12:30pm 16.2 14.4 9.6 65 3.4 S 9 15 5 8 1027.5 1027.6 0.0
25/12:00pm 17.1 16.1 10.2 64 3.6 SSW 6 13 3 7 1027.9 1028.0 0.0
25/11:30am 15.9 15.9 11.3 74 2.5 NNE 2 7 1 4 1028.3 1028.4 0.0
25/11:00am 15.5 15.3 11.9 79 1.9 N 4 9 2 5 1028.5 1028.6 0.0
25/10:30am 15.3 14.9 14.0 92 0.7 N 9 13 5 7 1028.6 1028.7 0.0
25/10:00am 13.4 12.8 13.4 100 0.0 N 9 13 5 7 1028.6 1028.7 0.0
25/09:30am 11.6 10.4 11.6 100 0.0 N 9 11 5 6 1028.6 1028.7 0.0

Other Formats:

Comma delimited format used in spreadsheet applications
http://www.bom.gov.au/fwo/IDW60801/IDW60801.95612.axf

JavaScript Object Notation format (JSON) in row-major order
http://www.bom.gov.au/fwo/IDW60801/IDW60801.95612.json